createdAt,value
2023-04-27T00:01:28.082Z,7.07
2023-04-27T00:05:45.652Z,6.93
2023-04-27T00:10:03.259Z,8.10
2023-04-27T00:14:21.362Z,6.93
2023-04-27T00:18:39.226Z,8.05
2023-04-27T00:22:57.054Z,10.35
2023-04-27T00:27:14.690Z,7.47
2023-04-27T00:31:32.497Z,8.85
2023-04-27T00:35:50.086Z,8.20
2023-04-27T00:40:09.035Z,7.75
2023-04-27T00:44:27.923Z,8.77
2023-04-27T00:48:46.230Z,9.43
2023-04-27T00:57:23.515Z,8.20
2023-04-27T01:01:41.355Z,7.68
2023-04-27T01:06:02.057Z,7.50
2023-04-27T01:10:19.666Z,7.72
2023-04-27T01:14:37.705Z,8.15
2023-04-27T01:18:56.039Z,8.30
2023-04-27T01:23:17.099Z,9.43
2023-04-27T01:27:35.479Z,8.45
2023-04-27T01:31:53.076Z,8.40
2023-04-27T01:36:11.065Z,8.40
2023-04-27T01:40:28.182Z,8.00
2023-04-27T01:44:46.221Z,8.07
2023-04-27T01:49:04.076Z,8.73
2023-04-27T01:53:22.107Z,7.90
2023-04-27T01:57:39.841Z,6.25
2023-04-27T02:01:57.724Z,6.95
2023-04-27T02:06:15.372Z,7.03
2023-04-27T02:10:33.153Z,5.80
2023-04-27T02:14:50.656Z,7.25
2023-04-27T02:19:08.351Z,7.43
2023-04-27T02:23:25.951Z,7.70
2023-04-27T02:27:43.974Z,7.83
2023-04-27T02:32:02.134Z,7.38
2023-04-27T02:36:19.857Z,8.23
2023-04-27T02:40:37.592Z,8.07
2023-04-27T02:44:55.352Z,7.57
2023-04-27T02:49:12.965Z,7.45
2023-04-27T02:53:30.819Z,7.28
2023-04-27T02:57:48.502Z,7.43
2023-04-27T03:02:07.203Z,8.03
2023-04-27T03:06:24.759Z,6.90
2023-04-27T03:10:42.532Z,6.93
2023-04-27T03:15:00.618Z,7.07
2023-04-27T03:19:18.258Z,7.40
2023-04-27T03:23:36.062Z,6.70
2023-04-27T03:27:53.755Z,6.60
2023-04-27T03:32:11.410Z,6.57
2023-04-27T03:36:29.306Z,5.78
2023-04-27T03:40:46.814Z,6.50
2023-04-27T03:45:06.031Z,6.88
2023-04-27T03:49:23.691Z,12.10
2023-04-27T03:53:41.376Z,11.63
2023-04-27T03:57:59.189Z,7.38
2023-04-27T04:02:17.479Z,6.38
2023-04-27T04:06:35.280Z,7.03
2023-04-27T04:10:53.006Z,7.28
2023-04-27T04:15:11.002Z,6.90
2023-04-27T04:19:28.518Z,8.20
2023-04-27T04:23:46.800Z,8.50
2023-04-27T04:32:23.277Z,12.83
2023-04-27T04:36:40.984Z,9.48
2023-04-27T04:40:59.406Z,9.18
2023-04-27T04:45:17.795Z,11.10
2023-04-27T04:49:35.299Z,12.23
2023-04-27T04:53:52.560Z,12.18
2023-04-27T04:58:10.230Z,10.60
2023-04-27T05:02:27.951Z,9.90
2023-04-27T05:06:45.753Z,9.10
2023-04-27T05:11:03.360Z,9.90
2023-04-27T05:15:21.361Z,8.13
2023-04-27T05:19:38.937Z,8.70
2023-04-27T05:23:56.654Z,8.97
2023-04-27T05:28:14.319Z,6.82
2023-04-27T05:32:34.074Z,6.10
2023-04-27T05:36:51.662Z,6.82
2023-04-27T05:41:09.332Z,8.27
2023-04-27T05:45:27.096Z,7.15
2023-04-27T05:49:44.988Z,6.80
2023-04-27T05:54:02.506Z,7.32
2023-04-27T05:58:20.267Z,5.63
2023-04-27T06:02:38.430Z,5.63
2023-04-27T06:06:56.602Z,5.70
2023-04-27T06:11:14.335Z,4.35
2023-04-27T06:15:31.902Z,5.30
2023-04-27T06:19:49.583Z,7.00
2023-04-27T06:24:07.467Z,8.15
2023-04-27T06:28:25.176Z,6.20
2023-04-27T06:32:42.797Z,6.18
2023-04-27T06:37:00.425Z,4.68
2023-04-27T06:41:18.350Z,4.38
2023-04-27T06:49:54.111Z,5.28
2023-04-27T06:54:12.346Z,4.68
2023-04-27T07:02:47.551Z,4.70
2023-04-27T07:07:06.504Z,4.00
2023-04-27T07:11:24.563Z,3.88
2023-04-27T07:15:42.257Z,3.58
2023-04-27T07:20:01.690Z,3.53
2023-04-27T07:24:19.467Z,3.88
2023-04-27T07:28:37.118Z,2.80
2023-04-27T07:32:55.138Z,2.38
2023-04-27T07:37:12.776Z,1.98
2023-04-27T07:41:31.696Z,1.80
2023-04-27T07:45:49.945Z,1.60
2023-04-27T07:50:11.217Z,1.80
2023-04-27T07:54:29.444Z,1.33
2023-04-27T08:03:05.416Z,1.60
2023-04-27T08:07:23.330Z,1.40
2023-04-27T08:11:41.177Z,1.77
2023-04-27T08:15:59.456Z,1.85
2023-04-27T08:20:17.299Z,1.80
2023-04-27T08:24:34.825Z,2.03
2023-04-27T08:28:52.454Z,2.60
2023-04-27T08:33:10.261Z,1.85
2023-04-27T08:37:28.028Z,2.05
2023-04-27T08:41:46.694Z,1.90
2023-04-27T08:46:04.591Z,1.83
2023-04-27T08:50:24.357Z,1.30
2023-04-27T08:54:42.287Z,1.92
2023-04-27T08:59:02.055Z,1.80
2023-04-27T09:03:26.318Z,1.90
2023-04-27T09:07:59.508Z,2.42
2023-04-27T09:12:22.233Z,2.00
2023-04-27T09:16:39.877Z,1.98
2023-04-27T09:20:57.616Z,1.60
2023-04-27T09:25:30.032Z,1.52
2023-04-27T09:29:47.941Z,2.25
2023-04-27T09:34:05.714Z,1.80
2023-04-27T09:38:24.588Z,2.10
2023-04-27T09:42:42.779Z,2.22
2023-04-27T09:47:01.368Z,1.35
2023-04-27T09:51:19.054Z,1.52
2023-04-27T09:55:42.621Z,1.83
2023-04-27T10:00:28.649Z,1.70
2023-04-27T10:05:40.748Z,1.60
2023-04-27T10:10:03.369Z,2.47
2023-04-27T10:14:24.243Z,1.70
2023-04-27T10:18:53.933Z,1.77
2023-04-27T10:23:12.060Z,2.20
2023-04-27T10:31:56.819Z,1.70
2023-04-27T10:36:16.079Z,1.98
2023-04-27T10:40:35.578Z,1.42
2023-04-27T10:44:57.781Z,1.52
2023-04-27T10:49:17.061Z,1.92
2023-04-27T10:53:36.324Z,1.40
2023-04-27T10:57:56.234Z,1.60
2023-04-27T11:02:14.223Z,2.10
2023-04-27T11:06:33.745Z,1.48
2023-04-27T11:10:52.319Z,1.73
2023-04-27T11:15:11.078Z,1.60
2023-04-27T11:19:31.221Z,1.15
2023-04-27T11:23:49.058Z,1.25
2023-04-27T11:28:18.716Z,1.15
2023-04-27T11:32:36.802Z,1.30
2023-04-27T11:41:33.254Z,1.40
2023-04-27T11:45:50.953Z,1.75
2023-04-27T11:50:09.522Z,1.35
2023-04-27T11:54:30.321Z,1.65
2023-04-27T11:58:47.858Z,1.30
2023-04-27T12:03:05.704Z,1.55
2023-04-27T12:11:41.449Z,1.88
2023-04-27T12:20:18.887Z,1.52
2023-04-27T12:24:37.345Z,1.73
2023-04-27T12:28:55.331Z,3.10
2023-04-27T12:37:30.582Z,1.10
2023-04-27T12:41:49.898Z,3.03
2023-04-27T12:46:07.755Z,1.63
2023-04-27T12:54:43.246Z,1.50
2023-04-27T12:59:01.034Z,1.77
2023-04-27T13:07:36.518Z,1.80
2023-04-27T13:11:54.588Z,1.88
2023-04-27T13:16:13.106Z,1.73
2023-04-27T13:20:30.906Z,1.98
2023-04-27T13:24:48.404Z,1.60
2023-04-27T13:29:06.120Z,1.88
2023-04-27T13:33:24.027Z,1.65
2023-04-27T13:42:00.290Z,1.65
2023-04-27T13:46:17.891Z,2.30
2023-04-27T13:54:54.000Z,1.67
2023-04-27T13:59:14.026Z,2.28
2023-04-27T14:03:32.050Z,2.33
2023-04-27T14:07:49.705Z,2.33
2023-04-27T14:12:08.939Z,2.03
2023-04-27T14:16:26.537Z,1.80
2023-04-27T14:21:02.900Z,1.83
2023-04-27T14:25:20.449Z,3.80
2023-04-27T14:29:38.105Z,3.55
2023-04-27T14:33:57.069Z,3.92
2023-04-27T14:38:14.886Z,2.10
2023-04-27T14:42:32.550Z,3.10
2023-04-27T14:46:50.369Z,2.20
2023-04-27T14:51:08.448Z,1.42
2023-04-27T14:55:26.142Z,1.77
2023-04-27T14:59:45.868Z,2.47
2023-04-27T15:04:03.146Z,2.70
2023-04-27T15:08:21.384Z,2.90
2023-04-27T15:12:42.594Z,1.55
2023-04-27T15:17:00.486Z,2.10
2023-04-27T15:21:18.064Z,2.00
2023-04-27T15:25:36.100Z,1.15
2023-04-27T15:29:54.585Z,1.65
2023-04-27T15:34:12.214Z,4.07
2023-04-27T15:38:29.840Z,3.00
2023-04-27T15:42:47.519Z,1.80
2023-04-27T15:47:05.259Z,1.67
2023-04-27T15:51:23.775Z,2.50
2023-04-27T15:55:41.394Z,2.13
2023-04-27T15:59:59.534Z,2.45
2023-04-27T16:08:35.023Z,2.35
2023-04-27T16:12:52.555Z,2.50
2023-04-27T16:17:10.413Z,2.80
2023-04-27T16:21:28.341Z,2.97
2023-04-27T16:25:46.268Z,2.63
2023-04-27T16:30:05.282Z,2.70
2023-04-27T16:34:23.323Z,2.90
2023-04-27T16:38:41.184Z,3.45
2023-04-27T16:42:59.997Z,3.85
2023-04-27T16:47:17.582Z,6.50
2023-04-27T16:51:39.003Z,8.20
2023-04-27T16:56:01.099Z,8.90
2023-04-27T17:00:19.220Z,3.90
2023-04-27T17:04:40.318Z,2.45
2023-04-27T17:09:04.279Z,2.90
2023-04-27T17:13:24.990Z,2.88
2023-04-27T17:17:43.421Z,3.72
2023-04-27T17:22:01.125Z,3.60
2023-04-27T17:26:22.544Z,4.18
2023-04-27T17:30:40.494Z,6.95
2023-04-27T17:35:02.422Z,13.75
2023-04-27T17:39:22.815Z,27.95
2023-04-27T17:43:45.320Z,15.38
2023-04-27T17:48:06.919Z,6.38
2023-04-27T17:52:24.967Z,8.77
2023-04-27T17:56:45.624Z,9.30
2023-04-27T18:01:04.046Z,11.63
2023-04-27T18:05:22.971Z,5.97
2023-04-27T18:09:42.966Z,6.30
2023-04-27T18:14:01.230Z,5.80
2023-04-27T18:18:23.876Z,4.18
2023-04-27T18:22:42.974Z,5.00
2023-04-27T18:27:00.729Z,6.85
2023-04-27T18:31:20.595Z,5.57
2023-04-27T18:35:38.583Z,4.88
2023-04-27T18:39:58.641Z,7.45
2023-04-27T18:44:17.087Z,9.23
2023-04-27T18:48:35.061Z,9.07
2023-04-27T18:52:55.528Z,7.55
2023-04-27T18:57:13.812Z,7.07
2023-04-27T19:01:32.678Z,7.55
2023-04-27T19:05:53.339Z,10.73
2023-04-27T19:10:12.181Z,12.60
2023-04-27T19:14:31.216Z,10.15
2023-04-27T19:18:49.520Z,11.32
2023-04-27T19:27:28.633Z,12.27
2023-04-27T19:31:48.486Z,10.70
2023-04-27T19:36:09.768Z,13.10
2023-04-27T19:40:31.976Z,10.73
2023-04-27T19:44:52.003Z,10.48
2023-04-27T19:49:10.437Z,9.70
2023-04-27T19:53:30.932Z,11.32
2023-04-27T19:57:49.411Z,11.68
2023-04-27T20:02:09.579Z,17.45
2023-04-27T20:06:27.560Z,18.48
2023-04-27T20:10:45.206Z,18.65
2023-04-27T20:15:07.434Z,16.30
2023-04-27T20:19:25.546Z,19.20
2023-04-27T20:23:46.526Z,21.77
2023-04-27T20:28:04.744Z,29.20
2023-04-27T20:36:44.512Z,38.75
2023-04-27T20:41:07.629Z,52.80
2023-04-27T20:45:31.333Z,46.97
2023-04-27T20:49:49.347Z,28.15
2023-04-27T20:58:27.524Z,24.35
2023-04-27T21:02:45.318Z,26.10
2023-04-27T21:07:03.510Z,23.98
2023-04-27T21:11:26.407Z,21.48
2023-04-27T21:15:44.050Z,23.08
2023-04-27T21:20:03.928Z,24.77
2023-04-27T21:24:24.962Z,26.17
2023-04-27T21:33:03.284Z,42.55
2023-04-27T21:37:21.443Z,31.02
2023-04-27T21:41:39.985Z,26.55
2023-04-27T21:45:57.974Z,24.90
2023-04-27T21:50:16.778Z,24.40
2023-04-27T21:54:34.824Z,22.48
2023-04-27T21:58:52.359Z,25.67
2023-04-27T22:03:10.513Z,18.25
2023-04-27T22:11:46.954Z,16.88
2023-04-27T22:16:04.796Z,17.65
2023-04-27T22:20:23.831Z,16.17
2023-04-27T22:24:41.425Z,19.80
2023-04-27T22:28:59.091Z,19.02
2023-04-27T22:33:16.916Z,15.80
2023-04-27T22:37:35.151Z,14.38
2023-04-27T22:41:52.686Z,15.30
2023-04-27T22:46:10.317Z,15.40
2023-04-27T22:50:29.464Z,14.90
2023-04-27T22:54:47.650Z,13.95
2023-04-27T22:59:05.268Z,13.93
2023-04-27T23:03:23.063Z,14.48
2023-04-27T23:07:43.746Z,13.95
2023-04-27T23:12:01.438Z,12.35
2023-04-27T23:16:19.027Z,14.27
2023-04-27T23:20:36.833Z,13.05
2023-04-27T23:24:55.066Z,13.25
2023-04-27T23:33:30.462Z,13.75
2023-04-27T23:37:47.967Z,12.07
2023-04-27T23:42:05.706Z,12.88
2023-04-27T23:46:23.487Z,11.93
2023-04-27T23:50:41.044Z,13.18
2023-04-27T23:55:02.147Z,14.45
2023-04-27T23:59:20.480Z,11.73
